Time;durP1;ratioP1;P1;durP2;ratioP2;P2;SDS_P1;SDS_P2;PMS_P1;PMS_P2;Temp;Humidity;BMP_temperature;BMP_pressure;BME280_temperature;BME280_humidity;BME280_pressure;Samples;Min_cycle;Max_cycle;Signal;HPM_P1;HPM_P2
2024/03/05 00:01:04;;;;;;;19.35;11.57;;;7.40;99.90;;;;;;5070019;28;20024;-75
2024/03/05 00:03:30;;;;;;;19.73;11.80;;;7.40;99.90;;;;;;5088010;28;20028;-74
2024/03/05 00:05:55;;;;;;;17.77;11.45;;;7.40;99.90;;;;;;5074352;28;20319;-75
2024/03/05 00:08:21;;;;;;;18.30;10.98;;;7.40;99.90;;;;;;5070016;28;20028;-75
2024/03/05 00:10:47;;;;;;;18.95;10.35;;;7.40;99.90;;;;;;5087827;28;20023;-75
2024/03/05 00:13:13;;;;;;;18.73;11.80;;;7.30;99.90;;;;;;5087707;28;20032;-75
2024/03/05 00:15:41;;;;;;;21.85;12.15;;;7.30;99.90;;;;;;5088329;28;20106;-73
2024/03/05 00:18:07;;;;;;;17.10;11.48;;;7.30;99.90;;;;;;5089381;28;20016;-75
2024/03/05 00:20:33;;;;;;;18.58;11.60;;;7.30;99.90;;;;;;5089299;28;20031;-74
2024/03/05 00:22:58;;;;;;;16.67;10.73;;;7.30;99.90;;;;;;5088428;28;20635;-76
2024/03/05 00:25:24;;;;;;;18.40;11.27;;;7.30;99.90;;;;;;5070759;28;20035;-75
2024/03/05 00:27:50;;;;;;;16.50;11.15;;;7.30;99.90;;;;;;5087260;28;20016;-75
2024/03/05 00:30:18;;;;;;;16.65;11.07;;;7.30;99.90;;;;;;5087674;28;20042;-75
2024/03/05 00:32:44;;;;;;;15.20;10.63;;;7.30;99.90;;;;;;5086696;28;20056;-74
2024/03/05 00:35:10;;;;;;;17.80;11.30;;;7.30;99.90;;;;;;5080985;28;20112;-75
2024/03/05 00:37:36;;;;;;;14.70;11.05;;;7.30;99.90;;;;;;5086982;28;20106;-75
2024/03/05 00:40:06;;;;;;;17.92;11.98;;;7.30;99.90;;;;;;5087258;28;20020;-76
2024/03/05 00:42:32;;;;;;;16.90;11.10;;;7.40;99.90;;;;;;5087398;28;20024;-75
2024/03/05 00:44:58;;;;;;;19.88;12.52;;;7.40;99.90;;;;;;5087276;28;20057;-75
2024/03/05 00:47:23;;;;;;;19.13;12.27;;;7.40;99.90;;;;;;5087966;28;20024;-75
2024/03/05 00:49:49;;;;;;;19.35;11.88;;;7.40;99.90;;;;;;5086493;28;20044;-75
2024/03/05 00:52:15;;;;;;;16.88;11.07;;;7.40;99.90;;;;;;5086208;28;20480;-75
2024/03/05 00:54:40;;;;;;;18.90;11.55;;;7.50;99.90;;;;;;5086657;28;20028;-75
2024/03/05 00:57:06;;;;;;;17.30;11.77;;;7.50;99.90;;;;;;5068909;28;20393;-75
2024/03/05 00:59:32;;;;;;;17.88;12.18;;;7.50;99.90;;;;;;5087101;28;20111;-75
2024/03/05 01:01:59;;;;;;;16.10;11.65;;;7.50;99.90;;;;;;5068874;28;20077;-74
2024/03/05 01:04:25;;;;;;;17.95;11.50;;;7.50;99.90;;;;;;5087139;28;20511;-74
2024/03/05 01:06:51;;;;;;;18.85;12.38;;;7.50;99.90;;;;;;5069074;28;20027;-75
2024/03/05 01:09:19;;;;;;;20.25;12.82;;;7.50;99.90;;;;;;5088062;28;20046;-75
2024/03/05 01:11:44;;;;;;;22.60;13.75;;;7.50;99.90;;;;;;5087497;28;20111;-74
2024/03/05 01:14:10;;;;;;;19.30;12.07;;;7.60;99.90;;;;;;5088106;28;20102;-73
2024/03/05 01:16:37;;;;;;;19.20;13.13;;;7.50;99.90;;;;;;5088750;28;20016;-75
2024/03/05 01:19:03;;;;;;;19.95;12.80;;;7.50;99.90;;;;;;5086489;28;20028;-75
2024/03/05 01:21:30;;;;;;;17.40;12.02;;;7.50;99.90;;;;;;5086975;28;20381;-75
2024/03/05 01:23:57;;;;;;;21.20;12.98;;;7.50;99.90;;;;;;5085959;28;20108;-75
2024/03/05 01:26:22;;;;;;;22.33;13.15;;;7.50;99.90;;;;;;5068411;28;20035;-75
2024/03/05 01:28:48;;;;;;;20.90;13.00;;;7.50;99.90;;;;;;5085976;28;20020;-75
2024/03/05 01:31:14;;;;;;;20.35;12.77;;;7.50;99.90;;;;;;5068273;28;20055;-75
2024/03/05 01:33:40;;;;;;;19.83;12.48;;;7.50;99.90;;;;;;5086202;28;20024;-75
2024/03/05 01:36:06;;;;;;;20.80;13.52;;;7.50;99.90;;;;;;5087074;28;20441;-75
2024/03/05 01:38:33;;;;;;;21.95;13.90;;;7.60;99.90;;;;;;5086153;28;20031;-75
2024/03/05 01:40:59;;;;;;;21.70;13.77;;;7.50;99.90;;;;;;5086581;28;20056;-75
2024/03/05 01:43:24;;;;;;;20.65;13.05;;;7.60;99.90;;;;;;5085984;28;20060;-74
2024/03/05 01:45:51;;;;;;;23.65;13.30;;;7.60;99.90;;;;;;5086492;28;20028;-73
2024/03/05 01:48:17;;;;;;;22.55;13.68;;;7.60;99.90;;;;;;5086140;28;20024;-75
2024/03/05 01:50:44;;;;;;;20.50;13.52;;;7.60;99.90;;;;;;5085828;28;20047;-75
2024/03/05 01:53:14;;;;;;;20.98;12.95;;;7.60;99.90;;;;;;5085949;28;20464;-75
2024/03/05 01:55:40;;;;;;;21.85;13.15;;;7.60;99.90;;;;;;5067619;28;20137;-75
2024/03/05 01:58:08;;;;;;;23.20;13.23;;;7.60;99.90;;;;;;5086016;28;20464;-75
2024/03/05 02:00:38;;;;;;;23.85;14.82;;;7.60;99.90;;;;;;5085791;28;20499;-74
2024/03/05 02:03:04;;;;;;;19.48;13.40;;;7.60;99.90;;;;;;5085883;28;20028;-74
2024/03/05 02:05:32;;;;;;;26.27;15.27;;;7.60;99.90;;;;;;5086135;28;20020;-74
2024/03/05 02:07:58;;;;;;;25.52;14.05;;;7.70;99.90;;;;;;5086097;28;20050;-74
2024/03/05 02:10:24;;;;;;;23.17;15.25;;;7.70;99.90;;;;;;5085938;28;20066;-74
2024/03/05 02:12:50;;;;;;;22.00;14.60;;;7.70;99.90;;;;;;5085863;28;20048;-73
2024/03/05 02:15:18;;;;;;;24.17;15.13;;;7.70;99.90;;;;;;5086573;28;20020;-74
2024/03/05 02:17:44;;;;;;;22.63;14.88;;;7.70;99.90;;;;;;5068228;28;20473;-73
2024/03/05 02:20:13;;;;;;;23.50;15.02;;;7.70;99.90;;;;;;5067843;28;20031;-74
2024/03/05 02:22:39;;;;;;;21.77;14.18;;;7.80;99.90;;;;;;5085890;28;20051;-74
2024/03/05 02:25:05;;;;;;;24.58;14.20;;;7.80;99.90;;;;;;5085707;28;20234;-73
2024/03/05 02:27:36;;;;;;;21.85;14.88;;;7.80;99.90;;;;;;5086104;28;20059;-74
2024/03/05 02:30:09;;;;;;;22.75;14.82;;;7.80;99.90;;;;;;5067632;28;20016;-76
2024/03/05 02:32:37;;;;;;;27.20;14.95;;;7.80;99.90;;;;;;5085849;28;20495;-74
2024/03/05 02:35:02;;;;;;;23.27;15.77;;;7.80;99.90;;;;;;5085103;28;20518;-73
2024/03/05 02:37:28;;;;;;;24.17;15.50;;;7.80;99.90;;;;;;5067530;28;20017;-73
2024/03/05 02:39:54;;;;;;;27.33;15.45;;;7.90;99.90;;;;;;5084968;28;20392;-74
2024/03/05 02:42:19;;;;;;;21.83;14.88;;;7.90;99.90;;;;;;5067592;28;20035;-74
2024/03/05 02:44:45;;;;;;;21.02;14.07;;;7.90;99.90;;;;;;5085370;28;20028;-75
2024/03/05 02:47:11;;;;;;;26.25;15.77;;;7.90;99.90;;;;;;5086552;28;20019;-75
2024/03/05 02:49:37;;;;;;;25.60;15.05;;;7.90;99.90;;;;;;5087198;28;20056;-75
2024/03/05 02:52:03;;;;;;;25.10;16.05;;;8.00;99.90;;;;;;5088738;28;20028;-75
2024/03/05 02:54:29;;;;;;;25.63;16.13;;;7.90;99.90;;;;;;5087083;28;20024;-75
2024/03/05 02:56:54;;;;;;;27.88;16.48;;;7.90;99.90;;;;;;5085516;28;20555;-75
2024/03/05 02:59:20;;;;;;;22.27;15.73;;;8.00;99.90;;;;;;5085631;28;20028;-75
2024/03/05 03:01:50;;;;;;;26.10;16.42;;;8.00;99.90;;;;;;5086551;28;20020;-75
2024/03/05 03:04:16;;;;;;;27.30;16.33;;;8.00;99.90;;;;;;5072082;28;20035;-75
2024/03/05 03:06:43;;;;;;;23.80;15.40;;;7.90;99.90;;;;;;5067520;28;20062;-74
2024/03/05 03:09:08;;;;;;;24.42;15.40;;;8.00;99.90;;;;;;5085132;28;20101;-75
2024/03/05 03:11:34;;;;;;;24.98;15.55;;;7.90;99.90;;;;;;5074840;28;20526;-74
2024/03/05 03:14:00;;;;;;;30.00;17.02;;;8.00;99.90;;;;;;5081731;28;20476;-75
2024/03/05 03:16:26;;;;;;;30.20;16.48;;;8.00;99.90;;;;;;5089039;28;20504;-75
2024/03/05 03:18:51;;;;;;;27.00;16.52;;;7.90;99.90;;;;;;5087950;28;20504;-75
2024/03/05 03:21:17;;;;;;;26.92;16.60;;;8.00;99.90;;;;;;5089076;28;20020;-75
2024/03/05 03:23:44;;;;;;;25.88;16.00;;;8.00;99.90;;;;;;5088300;28;20024;-75
2024/03/05 03:26:11;;;;;;;29.38;17.33;;;7.90;99.90;;;;;;5070981;28;20024;-75
2024/03/05 03:28:37;;;;;;;28.73;17.60;;;7.90;99.90;;;;;;5070932;28;20028;-75
2024/03/05 03:31:05;;;;;;;26.80;16.50;;;8.00;99.90;;;;;;5086947;28;20036;-75
2024/03/05 03:33:31;;;;;;;29.50;17.25;;;8.00;99.90;;;;;;5059516;28;20067;-74
2024/03/05 03:35:57;;;;;;;28.20;16.15;;;8.00;99.90;;;;;;5088771;28;20533;-75
2024/03/05 03:38:23;;;;;;;25.83;16.38;;;8.00;99.90;;;;;;5070280;28;20047;-75
2024/03/05 03:40:49;;;;;;;28.77;17.48;;;8.00;99.90;;;;;;5088935;28;20098;-74
2024/03/05 03:43:15;;;;;;;29.38;16.23;;;8.00;99.90;;;;;;5088322;28;20370;-75
2024/03/05 03:45:41;;;;;;;27.02;18.08;;;8.00;99.90;;;;;;5088851;28;20028;-75
2024/03/05 03:48:07;;;;;;;29.23;16.20;;;8.00;99.90;;;;;;5088613;28;20489;-75
2024/03/05 03:50:33;;;;;;;28.48;17.80;;;8.00;99.90;;;;;;5066385;28;20061;-72
2024/03/05 03:52:59;;;;;;;27.33;17.38;;;8.00;99.90;;;;;;5071140;28;20086;-73
2024/03/05 03:55:26;;;;;;;29.00;17.05;;;8.00;99.90;;;;;;5072708;28;20511;-75
2024/03/05 03:57:52;;;;;;;30.75;18.88;;;8.00;99.90;;;;;;5071696;28;20033;-75
2024/03/05 04:00:18;;;;;;;28.45;18.55;;;8.00;99.90;;;;;;5069012;28;20025;-75
2024/03/05 04:02:45;;;;;;;29.27;17.73;;;8.00;99.90;;;;;;5068652;28;20027;-75
2024/03/05 04:05:11;;;;;;;26.90;16.52;;;8.00;99.90;;;;;;5067804;28;20107;-75
2024/03/05 04:07:37;;;;;;;31.58;18.05;;;8.00;99.90;;;;;;5065802;28;20100;-75
2024/03/05 04:10:07;;;;;;;34.00;19.83;;;8.00;99.90;;;;;;5065583;28;20112;-75
2024/03/05 04:12:33;;;;;;;29.67;17.40;;;8.00;99.90;;;;;;5067766;28;20016;-75
2024/03/05 04:15:00;;;;;;;31.95;17.77;;;8.00;99.90;;;;;;5067671;28;20024;-75
2024/03/05 04:17:27;;;;;;;25.90;17.50;;;8.00;99.90;;;;;;5067673;28;20020;-75
2024/03/05 04:19:52;;;;;;;30.02;17.75;;;8.00;99.90;;;;;;5067051;28;20016;-75
2024/03/05 04:22:18;;;;;;;30.90;17.35;;;8.00;99.90;;;;;;5067616;28;20393;-75
2024/03/05 04:24:52;;;;;;;31.70;17.85;;;8.10;99.90;;;;;;5065898;28;20028;-74
2024/03/05 04:27:19;;;;;;;30.02;18.77;;;8.10;99.90;;;;;;5067597;28;20040;-75
2024/03/05 04:29:47;;;;;;;30.20;17.38;;;8.00;99.90;;;;;;5048353;28;20017;-75
2024/03/05 04:32:14;;;;;;;33.60;19.35;;;8.10;99.90;;;;;;5058735;28;20036;-75
2024/03/05 04:34:42;;;;;;;29.67;18.40;;;8.00;99.90;;;;;;5059943;28;20017;-75
2024/03/05 04:37:11;;;;;;;33.00;19.30;;;8.10;99.90;;;;;;5067262;28;20489;-74
2024/03/05 04:39:38;;;;;;;29.13;17.83;;;8.10;99.90;;;;;;5066500;28;20531;-75
2024/03/05 04:42:04;;;;;;;31.05;18.30;;;8.10;99.90;;;;;;5067192;28;20024;-75
2024/03/05 04:44:29;;;;;;;31.38;18.73;;;8.10;99.90;;;;;;5067671;28;20028;-74
2024/03/05 04:46:56;;;;;;;31.90;19.38;;;8.10;99.90;;;;;;5068583;28;20550;-75
2024/03/05 04:49:22;;;;;;;30.05;18.00;;;8.10;99.90;;;;;;5071323;28;20072;-75
2024/03/05 04:51:49;;;;;;;33.88;19.10;;;8.10;99.90;;;;;;5089489;28;20054;-74
2024/03/05 04:54:15;;;;;;;33.38;19.05;;;8.10;99.90;;;;;;5088161;28;20028;-75
2024/03/05 04:56:41;;;;;;;35.95;18.92;;;8.10;99.90;;;;;;5069080;28;20119;-75
2024/03/05 04:59:06;;;;;;;33.25;19.30;;;8.10;99.90;;;;;;5086700;28;20065;-75
2024/03/05 05:01:32;;;;;;;33.30;19.38;;;8.10;99.90;;;;;;5087453;28;20103;-75
2024/03/05 05:03:58;;;;;;;31.52;17.88;;;8.10;99.90;;;;;;5086503;28;20056;-76
2024/03/05 05:06:25;;;;;;;32.22;18.80;;;8.10;99.90;;;;;;5087082;28;20024;-75
2024/03/05 05:08:51;;;;;;;37.70;20.67;;;8.10;99.90;;;;;;5068037;28;20054;-74
2024/03/05 05:11:16;;;;;;;35.17;19.75;;;8.10;99.90;;;;;;5086952;28;20047;-75
2024/03/05 05:13:42;;;;;;;33.05;17.92;;;8.10;99.90;;;;;;5086334;28;20019;-73
2024/03/05 05:16:08;;;;;;;34.10;18.80;;;8.10;99.90;;;;;;5073383;28;20111;-74
2024/03/05 05:18:34;;;;;;;37.60;19.85;;;8.10;99.90;;;;;;5087021;28;20494;-74
2024/03/05 05:21:00;;;;;;;34.85;18.88;;;8.10;99.90;;;;;;5068652;28;20035;-74
2024/03/05 05:23:26;;;;;;;37.10;19.63;;;8.10;99.90;;;;;;5087826;28;20024;-75
2024/03/05 05:25:52;;;;;;;36.20;18.90;;;8.10;99.90;;;;;;5086793;28;20389;-75
2024/03/05 05:28:18;;;;;;;39.33;20.05;;;8.10;99.90;;;;;;5069463;28;20028;-74
2024/03/05 05:30:44;;;;;;;38.33;20.00;;;8.10;99.90;;;;;;5068490;28;20020;-74
2024/03/05 05:33:09;;;;;;;36.22;19.20;;;8.10;99.90;;;;;;5087319;28;20569;-75
2024/03/05 05:35:37;;;;;;;35.67;20.33;;;8.10;99.90;;;;;;5087024;28;20028;-73
2024/03/05 05:38:03;;;;;;;38.67;19.42;;;8.10;99.90;;;;;;5089053;28;20127;-73
2024/03/05 05:40:29;;;;;;;36.22;18.27;;;8.10;99.90;;;;;;5087716;28;20350;-74
2024/03/05 05:42:55;;;;;;;38.03;19.02;;;8.10;99.90;;;;;;5086940;28;20035;-75
2024/03/05 05:45:23;;;;;;;38.55;19.30;;;8.10;99.90;;;;;;5068508;28;20020;-73
2024/03/05 05:47:51;;;;;;;36.45;19.85;;;8.10;99.90;;;;;;5086776;28;20032;-75
2024/03/05 05:50:18;;;;;;;37.35;19.05;;;8.10;99.90;;;;;;5086210;28;20036;-74
2024/03/05 05:52:48;;;;;;;34.38;18.33;;;8.10;99.90;;;;;;5086151;28;20036;-75
2024/03/05 05:55:15;;;;;;;39.38;18.88;;;8.10;99.90;;;;;;5085952;28;20028;-75
2024/03/05 05:57:46;;;;;;;33.88;17.52;;;8.10;99.90;;;;;;5086659;28;20016;-75
2024/03/05 06:00:22;;;;;;;34.33;17.92;;;8.10;99.90;;;;;;5086161;28;20497;-73
2024/03/05 06:02:50;;;;;;;38.08;19.23;;;8.10;99.90;;;;;;5068495;28;20031;-73
2024/03/05 06:05:16;;;;;;;34.50;17.77;;;8.10;99.90;;;;;;5084487;28;20505;-74
2024/03/05 06:07:43;;;;;;;34.85;17.30;;;8.10;99.90;;;;;;5087086;28;20487;-74
2024/03/05 06:10:08;;;;;;;40.45;18.35;;;8.00;99.90;;;;;;5086765;28;20376;-74
2024/03/05 06:12:34;;;;;;;36.35;17.80;;;8.00;99.90;;;;;;5086601;28;20025;-75
2024/03/05 06:15:00;;;;;;;34.97;18.65;;;8.10;99.90;;;;;;5086313;28;20024;-74
2024/03/05 06:17:26;;;;;;;35.00;18.00;;;8.00;99.90;;;;;;5086341;28;20020;-75
2024/03/05 06:19:53;;;;;;;33.40;17.65;;;8.00;99.90;;;;;;5085698;28;20020;-74
2024/03/05 06:22:18;;;;;;;32.03;17.58;;;8.00;99.90;;;;;;5085969;28;20020;-74
2024/03/05 06:24:44;;;;;;;36.40;18.33;;;8.10;99.90;;;;;;5085683;28;20355;-74
2024/03/05 06:27:10;;;;;;;36.92;18.40;;;8.00;99.90;;;;;;5068237;28;20024;-75
2024/03/05 06:29:39;;;;;;;39.72;19.67;;;8.10;99.90;;;;;;5085649;28;20020;-74
2024/03/05 06:32:06;;;;;;;36.03;18.83;;;8.00;99.90;;;;;;5068837;28;20031;-74
2024/03/05 06:34:33;;;;;;;31.92;17.55;;;8.00;99.90;;;;;;5086766;28;20524;-75
2024/03/05 06:37:01;;;;;;;39.55;19.40;;;8.00;99.90;;;;;;5086045;28;20137;-74
2024/03/05 06:39:29;;;;;;;38.22;18.38;;;8.00;99.90;;;;;;5067686;28;20024;-75
2024/03/05 06:41:56;;;;;;;35.58;20.38;;;8.00;99.90;;;;;;5086033;28;20051;-74
2024/03/05 06:44:25;;;;;;;38.65;18.65;;;8.10;99.90;;;;;;5085572;28;20027;-74
2024/03/05 06:46:53;;;;;;;38.88;19.02;;;8.00;99.90;;;;;;5072016;28;20119;-74
2024/03/05 06:49:27;;;;;;;40.63;19.13;;;8.10;99.90;;;;;;5078135;28;20036;-74
2024/03/05 06:51:55;;;;;;;35.83;19.05;;;8.00;99.90;;;;;;5073554;28;20512;-74
2024/03/05 06:57:08;;;;;;;40.85;19.88;;;8.10;99.90;;;;;;5072847;28;20027;-74
2024/03/05 06:59:34;;;;;;;37.95;18.77;;;8.00;99.90;;;;;;5079021;28;20045;-75
2024/03/05 07:02:00;;;;;;;39.45;19.10;;;8.10;99.90;;;;;;5065427;28;20063;-74
2024/03/05 07:04:27;;;;;;;37.50;18.67;;;8.10;99.90;;;;;;5078295;28;20485;-74
2024/03/05 07:06:54;;;;;;;41.60;19.75;;;8.10;99.90;;;;;;5070940;28;20035;-75
2024/03/05 07:09:30;;;;;;;40.00;18.88;;;8.10;99.90;;;;;;5050629;28;20036;-75
2024/03/05 07:11:57;;;;;;;36.70;20.38;;;8.10;99.90;;;;;;5079582;28;20138;-75
2024/03/05 07:14:23;;;;;;;40.22;20.08;;;8.10;99.90;;;;;;5065732;28;20028;-74
2024/03/05 07:16:48;;;;;;;36.83;19.08;;;8.10;99.90;;;;;;5053255;28;20477;-74
2024/03/05 07:19:14;;;;;;;40.15;20.33;;;8.10;99.90;;;;;;5071750;28;20022;-73
2024/03/05 07:21:40;;;;;;;36.58;19.10;;;8.10;99.90;;;;;;5069054;28;20031;-74
2024/03/05 07:24:06;;;;;;;40.22;19.75;;;8.10;99.90;;;;;;5082295;28;20397;-74
2024/03/05 07:26:34;;;;;;;37.63;18.77;;;8.10;99.90;;;;;;5087197;28;20024;-74
2024/03/05 07:29:00;;;;;;;42.10;20.58;;;8.10;99.90;;;;;;5071460;28;20067;-74
2024/03/05 07:31:28;;;;;;;44.05;20.60;;;8.20;99.90;;;;;;5075489;28;20059;-75
2024/03/05 07:33:54;;;;;;;43.72;22.98;;;8.20;99.90;;;;;;5082577;28;20393;-74
2024/03/05 07:36:23;;;;;;;43.50;21.60;;;8.20;99.90;;;;;;5068551;28;20008;-74
2024/03/05 07:38:48;;;;;;;49.88;22.77;;;8.20;99.90;;;;;;5088602;28;20027;-76
2024/03/05 07:41:17;;;;;;;44.30;21.30;;;8.20;99.90;;;;;;5069822;28;20036;-74
2024/03/05 07:43:42;;;;;;;49.53;21.77;;;8.20;99.90;;;;;;5087456;28;20579;-75
2024/03/05 07:46:08;;;;;;;42.33;22.60;;;8.30;99.90;;;;;;5070274;28;20066;-75
2024/03/05 07:48:33;;;;;;;49.95;21.85;;;8.30;99.90;;;;;;5084491;28;20032;-74
2024/03/05 07:51:00;;;;;;;49.85;22.75;;;8.30;99.90;;;;;;5070181;28;20040;-74
2024/03/05 07:53:28;;;;;;;48.50;22.23;;;8.30;99.90;;;;;;5081302;28;20054;-75
2024/03/05 07:55:54;;;;;;;51.15;22.75;;;8.30;99.90;;;;;;5068135;28;20077;-75
2024/03/05 07:58:19;;;;;;;51.88;23.45;;;8.30;99.90;;;;;;5076767;28;20024;-74
2024/03/05 08:00:45;;;;;;;51.50;23.05;;;8.30;99.90;;;;;;5084148;28;20047;-75
2024/03/05 08:03:11;;;;;;;49.95;23.42;;;8.40;99.90;;;;;;5088180;28;20031;-74
2024/03/05 08:05:36;;;;;;;58.42;24.67;;;8.40;99.90;;;;;;5058086;28;20031;-75
2024/03/05 08:08:04;;;;;;;56.40;25.90;;;8.40;99.90;;;;;;5086828;28;20028;-75
2024/03/05 08:10:29;;;;;;;59.15;25.92;;;8.50;99.90;;;;;;5078440;28;20119;-74
2024/03/05 08:12:56;;;;;;;51.13;24.27;;;8.40;99.90;;;;;;5077828;28;20491;-75
2024/03/05 08:15:24;;;;;;;57.33;24.55;;;8.50;99.90;;;;;;5078526;28;20027;-74
2024/03/05 08:17:51;;;;;;;53.15;24.48;;;8.50;99.90;;;;;;5071606;28;20021;-75
2024/03/05 08:20:17;;;;;;;58.30;25.25;;;8.50;99.90;;;;;;5074483;28;20111;-74
2024/03/05 08:22:46;;;;;;;61.85;27.17;;;8.50;99.90;;;;;;5088165;28;20058;-74
2024/03/05 08:25:16;;;;;;;58.67;27.77;;;8.50;99.90;;;;;;5089285;28;20027;-75
2024/03/05 08:27:43;;;;;;;59.73;26.37;;;8.60;99.90;;;;;;5087985;28;20020;-74
2024/03/05 08:30:11;;;;;;;61.60;25.48;;;8.60;99.90;;;;;;5065738;28;20257;-75
2024/03/05 08:32:37;;;;;;;64.00;28.65;;;8.60;99.90;;;;;;5075959;28;20027;-74
2024/03/05 08:35:05;;;;;;;60.85;26.33;;;8.70;99.90;;;;;;5081084;28;20028;-74
2024/03/05 08:37:31;;;;;;;61.47;28.23;;;8.60;99.90;;;;;;5074827;28;20436;-74
2024/03/05 08:39:57;;;;;;;64.60;27.63;;;8.60;99.90;;;;;;5079906;28;20020;-74
2024/03/05 08:42:23;;;;;;;66.57;29.02;;;8.60;99.90;;;;;;5072699;28;20024;-75
2024/03/05 08:44:48;;;;;;;62.83;27.77;;;8.60;99.90;;;;;;5079382;28;20518;-74
2024/03/05 08:47:14;;;;;;;63.22;28.95;;;8.60;99.90;;;;;;5087569;28;20057;-74
2024/03/05 08:49:40;;;;;;;72.13;31.83;;;8.60;99.90;;;;;;5079438;28;20445;-74
2024/03/05 08:52:06;;;;;;;61.25;28.60;;;8.60;99.90;;;;;;5079976;28;20059;-74
2024/03/05 08:54:32;;;;;;;68.15;27.17;;;8.70;99.90;;;;;;5060089;28;20020;-73
2024/03/05 08:56:58;;;;;;;70.03;29.05;;;8.70;99.90;;;;;;5059978;28;20130;-74
2024/03/05 08:59:25;;;;;;;60.58;26.05;;;8.70;99.90;;;;;;5071723;28;20443;-75
2024/03/05 09:01:53;;;;;;;70.70;30.63;;;8.70;99.90;;;;;;5075430;28;20029;-74
2024/03/05 09:04:23;;;;;;;70.68;29.92;;;8.70;99.90;;;;;;5053253;28;20039;-75
2024/03/05 09:06:49;;;;;;;68.93;30.30;;;8.80;99.90;;;;;;5068542;28;20028;-75
2024/03/05 09:09:16;;;;;;;70.20;31.00;;;8.80;99.90;;;;;;5069422;28;20131;-75
2024/03/05 09:11:42;;;;;;;66.25;28.27;;;8.80;99.90;;;;;;5077207;28;20024;-75
2024/03/05 09:14:08;;;;;;;70.85;29.00;;;8.90;99.90;;;;;;5086730;28;20541;-75
2024/03/05 09:16:37;;;;;;;69.93;30.08;;;8.90;99.90;;;;;;5086890;28;20028;-75
2024/03/05 09:19:03;;;;;;;74.10;30.40;;;8.90;99.90;;;;;;5067169;28;20023;-75
2024/03/05 09:21:29;;;;;;;68.43;29.58;;;8.90;99.90;;;;;;5068735;28;20437;-75
2024/03/05 09:23:54;;;;;;;71.30;29.80;;;9.00;99.90;;;;;;5087266;28;20058;-74
2024/03/05 09:26:20;;;;;;;62.65;29.92;;;8.90;99.90;;;;;;5086211;28;20055;-75
2024/03/05 09:28:45;;;;;;;66.25;28.58;;;8.90;99.90;;;;;;5087398;28;20400;-75
2024/03/05 09:31:11;;;;;;;59.83;27.08;;;8.90;99.90;;;;;;5088002;28;20032;-75
2024/03/05 09:33:38;;;;;;;67.35;29.55;;;8.90;99.90;;;;;;5086792;28;20024;-76
2024/03/05 09:36:06;;;;;;;59.80;29.45;;;8.90;99.90;;;;;;5067843;28;20020;-74
2024/03/05 09:38:32;;;;;;;60.08;27.17;;;8.90;99.90;;;;;;5084528;28;20039;-75
2024/03/05 09:40:58;;;;;;;68.88;30.38;;;8.90;99.90;;;;;;5084528;28;20032;-75
2024/03/05 09:43:25;;;;;;;69.85;30.70;;;9.00;99.90;;;;;;5086766;28;20129;-75
2024/03/05 09:45:51;;;;;;;64.10;32.60;;;9.00;99.90;;;;;;5067998;28;20111;-75
2024/03/05 09:48:19;;;;;;;58.65;27.80;;;9.00;99.90;;;;;;5085897;28;20378;-75
2024/03/05 09:50:49;;;;;;;63.20;29.52;;;9.00;99.90;;;;;;5090479;28;20404;-75
2024/03/05 09:53:18;;;;;;;56.53;26.60;;;9.10;99.90;;;;;;5077570;28;20607;-73
2024/03/05 09:55:44;;;;;;;57.38;26.88;;;9.10;99.90;;;;;;5079593;28;20024;-75
2024/03/05 09:58:10;;;;;;;59.72;27.90;;;9.10;99.90;;;;;;5090426;28;20024;-75
2024/03/05 10:00:37;;;;;;;60.05;28.85;;;9.20;99.90;;;;;;5096120;28;20064;-74
2024/03/05 10:03:03;;;;;;;65.57;31.67;;;9.20;99.90;;;;;;5078194;28;20119;-75
2024/03/05 10:05:29;;;;;;;62.50;28.20;;;9.20;99.90;;;;;;5085722;28;20020;-74
2024/03/05 10:07:54;;;;;;;60.45;28.13;;;9.30;99.90;;;;;;5086570;28;20024;-75
2024/03/05 10:10:21;;;;;;;54.90;25.52;;;9.30;99.90;;;;;;5087269;28;20020;-73
2024/03/05 10:12:49;;;;;;;61.67;29.80;;;9.30;99.90;;;;;;5088449;28;20028;-74
2024/03/05 10:15:22;;;;;;;55.90;26.98;;;9.40;99.90;;;;;;5097838;28;20027;-74
2024/03/05 10:17:50;;;;;;;59.60;29.90;;;9.40;99.90;;;;;;5087826;28;20028;-76
2024/03/05 10:20:36;;;;;;;52.70;29.17;;;9.40;99.90;;;;;;5087357;28;20031;-74
2024/03/05 10:23:03;;;;;;;44.75;22.98;;;9.50;99.90;;;;;;5055335;28;20089;-74
2024/03/05 10:25:30;;;;;;;54.50;24.98;;;9.50;99.90;;;;;;5090240;28;20024;-75
2024/03/05 10:27:56;;;;;;;54.08;26.17;;;9.50;99.90;;;;;;5071385;28;20097;-74
2024/03/05 10:30:33;;;;;;;47.42;28.38;;;9.50;99.90;;;;;;5071225;28;20468;-74
2024/03/05 10:33:04;;;;;;;44.72;24.08;;;9.50;99.90;;;;;;5090326;28;20027;-74
2024/03/05 10:35:33;;;;;;;45.15;24.58;;;9.50;99.90;;;;;;5083760;28;20035;-74
2024/03/05 10:38:03;;;;;;;44.92;23.80;;;9.50;99.90;;;;;;5090346;28;20077;-74
2024/03/05 10:40:32;;;;;;;49.72;25.63;;;9.60;99.90;;;;;;5082472;28;20028;-74
2024/03/05 10:43:08;;;;;;;41.95;22.73;;;9.60;99.90;;;;;;5066238;28;20020;-74
2024/03/05 10:45:38;;;;;;;44.10;24.30;;;9.60;99.90;;;;;;5080613;28;20031;-75
2024/03/05 10:48:07;;;;;;;41.58;24.75;;;9.60;99.90;;;;;;5082120;28;20035;-74
2024/03/05 10:50:36;;;;;;;39.30;23.43;;;9.60;99.90;;;;;;5084595;28;20384;-75
2024/03/05 10:53:04;;;;;;;35.40;21.10;;;9.60;99.90;;;;;;5073127;28;20021;-74
2024/03/05 10:55:33;;;;;;;35.17;19.88;;;9.60;99.90;;;;;;5079797;28;20377;-74
2024/03/05 11:00:39;;;;;;;33.53;19.83;;;9.70;99.90;;;;;;5077548;28;20032;-75
2024/03/05 11:03:10;;;;;;;33.47;18.23;;;9.70;99.90;;;;;;5087577;28;20384;-73
2024/03/05 11:05:58;;;;;;;27.17;17.00;;;9.70;99.90;;;;;;5086084;28;20020;-74
2024/03/05 11:08:24;;;;;;;25.77;14.38;;;9.70;99.90;;;;;;5080307;28;20027;-75
2024/03/05 11:11:02;;;;;;;26.95;15.55;;;9.70;99.90;;;;;;5095917;28;20107;-74
2024/03/05 11:13:31;;;;;;;24.90;13.50;;;9.60;99.90;;;;;;5090398;28;20052;-73
2024/03/05 11:15:56;;;;;;;24.20;14.20;;;9.70;99.90;;;;;;5087100;28;20032;-74
2024/03/05 11:18:35;;;;;;;27.70;16.35;;;9.70;99.90;;;;;;5081118;28;20475;-74
2024/03/05 11:21:11;;;;;;;26.17;15.40;;;9.60;99.90;;;;;;5075650;28;20036;-74
2024/03/05 11:23:57;;;;;;;27.27;13.93;;;9.60;99.90;;;;;;5074158;28;20027;-74
2024/03/05 11:26:25;;;;;;;24.85;14.48;;;9.60;99.90;;;;;;5073176;28;20039;-74
2024/03/05 11:29:16;;;;;;;26.80;16.63;;;9.60;99.90;;;;;;5072146;28;20099;-74
2024/03/05 11:31:46;;;;;;;29.40;16.17;;;9.50;99.90;;;;;;5067656;28;20035;-75
2024/03/05 11:34:13;;;;;;;28.40;15.50;;;9.50;99.90;;;;;;5062037;28;20032;-76
2024/03/05 11:36:39;;;;;;;33.72;17.67;;;9.40;99.90;;;;;;5066837;28;20024;-71
2024/03/05 11:39:17;;;;;;;25.05;16.42;;;9.40;99.90;;;;;;5078013;28;20013;-75
2024/03/05 11:41:44;;;;;;;25.48;16.90;;;9.40;99.90;;;;;;5053101;28;20115;-75
2024/03/05 11:44:35;;;;;;;28.50;17.05;;;9.30;99.90;;;;;;5068546;28;20044;-74
2024/03/05 11:47:01;;;;;;;25.45;16.65;;;9.30;99.90;;;;;;5062918;28;20042;-75
2024/03/05 11:49:26;;;;;;;27.27;16.30;;;9.30;99.90;;;;;;5067183;28;20051;-74
2024/03/05 11:51:52;;;;;;;27.65;16.88;;;9.40;99.90;;;;;;5085793;28;20540;-74
2024/03/05 11:54:18;;;;;;;29.73;14.98;;;9.40;99.90;;;;;;5086889;28;20117;-74
2024/03/05 11:56:56;;;;;;;29.25;17.23;;;9.40;99.90;;;;;;5086130;28;20024;-74
2024/03/05 11:59:38;;;;;;;24.95;13.73;;;9.30;99.90;;;;;;5069916;28;20024;-74
2024/03/05 12:02:16;;;;;;;24.98;14.48;;;9.30;99.90;;;;;;5068125;28;20504;-74
2024/03/05 12:04:48;;;;;;;27.50;15.75;;;9.30;99.90;;;;;;5062420;28;20043;-74
2024/03/05 12:07:15;;;;;;;32.22;18.17;;;9.30;99.90;;;;;;5075418;28;20025;-74
2024/03/05 12:09:41;;;;;;;28.27;16.02;;;9.20;99.90;;;;;;5062229;28;20056;-74
2024/03/05 12:12:11;;;;;;;27.15;16.67;;;9.30;99.90;;;;;;5054122;28;20055;-74
2024/03/05 12:14:39;;;;;;;28.27;17.52;;;9.30;99.90;;;;;;5054908;28;20063;-74
2024/03/05 12:17:12;;;;;;;25.17;14.93;;;9.20;99.90;;;;;;5069422;28;20055;-75
2024/03/05 12:19:38;;;;;;;22.13;15.00;;;9.20;99.90;;;;;;5075150;28;20085;-75
2024/03/05 12:22:06;;;;;;;26.08;15.80;;;9.20;99.90;;;;;;5084777;28;20582;-75
2024/03/05 12:24:32;;;;;;;25.50;15.82;;;9.10;99.90;;;;;;5082975;28;20054;-74
2024/03/05 12:26:59;;;;;;;31.65;17.75;;;9.00;99.90;;;;;;5082596;28;20055;-74
2024/03/05 12:29:29;;;;;;;29.00;17.77;;;9.00;99.90;;;;;;5088064;28;20012;-74
2024/03/05 12:31:56;;;;;;;27.30;14.77;;;8.90;99.90;;;;;;5078255;28;20040;-74
2024/03/05 12:34:22;;;;;;;28.40;15.35;;;8.90;99.90;;;;;;5083137;28;20035;-73
2024/03/05 12:36:49;;;;;;;30.15;18.73;;;8.90;99.90;;;;;;5074385;28;20024;-74
2024/03/05 12:39:18;;;;;;;24.77;14.98;;;8.90;99.90;;;;;;5072123;28;20441;-73
2024/03/05 12:41:56;;;;;;;29.00;16.25;;;8.90;99.90;;;;;;5075743;28;20032;-74